createdAt,value
2022-09-13T00:00:41.804Z,1.40
2022-09-13T00:03:09.318Z,1.30
2022-09-13T00:05:36.457Z,1.60
2022-09-13T00:08:03.186Z,1.77
2022-09-13T00:10:29.947Z,1.27
2022-09-13T00:12:56.906Z,1.15
2022-09-13T00:15:23.474Z,1.38
2022-09-13T00:17:50.060Z,1.40
2022-09-13T00:20:16.668Z,1.70
2022-09-13T00:22:43.362Z,1.60
2022-09-13T00:25:10.162Z,1.60
2022-09-13T00:27:36.930Z,1.50
2022-09-13T00:30:07.284Z,1.67
2022-09-13T00:32:34.214Z,1.75
2022-09-13T00:35:01.773Z,1.65
2022-09-13T00:37:28.405Z,1.60
2022-09-13T00:39:55.079Z,1.70
2022-09-13T00:42:26.039Z,1.65
2022-09-13T00:44:57.430Z,1.60
2022-09-13T00:47:45.848Z,1.50
2022-09-13T00:50:37.143Z,1.50
2022-09-13T00:53:10.032Z,1.35
2022-09-13T00:55:56.469Z,1.38
2022-09-13T00:58:50.875Z,1.38
2022-09-13T01:01:17.884Z,1.35
2022-09-13T01:03:44.780Z,1.73
2022-09-13T01:06:13.199Z,1.70
2022-09-13T01:08:40.727Z,1.30
2022-09-13T01:11:10.823Z,1.63
2022-09-13T01:13:37.515Z,1.15
2022-09-13T01:16:04.225Z,1.40
2022-09-13T01:18:30.933Z,1.27
2022-09-13T01:21:31.668Z,1.75
2022-09-13T01:24:13.397Z,1.30
2022-09-13T01:26:48.747Z,1.30
2022-09-13T01:29:20.380Z,1.70
2022-09-13T01:31:52.787Z,1.65
2022-09-13T01:34:31.282Z,1.35
2022-09-13T01:37:23.499Z,1.50
2022-09-13T01:40:16.151Z,1.50
2022-09-13T01:42:59.299Z,1.45
2022-09-13T01:45:37.944Z,1.52
2022-09-13T01:48:34.743Z,1.65
2022-09-13T01:51:07.408Z,1.17
2022-09-13T01:53:46.025Z,1.48
2022-09-13T01:56:18.138Z,1.33
2022-09-13T01:58:56.892Z,1.45
2022-09-13T02:01:31.597Z,1.40
2022-09-13T02:04:10.363Z,1.27
2022-09-13T02:06:43.083Z,1.33
2022-09-13T02:09:21.327Z,1.60
2022-09-13T02:11:50.637Z,1.67
2022-09-13T02:14:20.518Z,1.65
2022-09-13T02:16:55.189Z,1.40
2022-09-13T02:19:24.747Z,1.90
2022-09-13T02:21:56.750Z,1.60
2022-09-13T02:24:26.323Z,1.73
2022-09-13T02:26:53.276Z,1.52
2022-09-13T02:29:20.665Z,1.73
2022-09-13T02:31:52.180Z,1.50
2022-09-13T02:34:20.643Z,1.50
2022-09-13T02:36:47.334Z,1.40
2022-09-13T02:39:15.428Z,1.30
2022-09-13T02:42:00.615Z,1.60
2022-09-13T02:44:36.969Z,1.42
2022-09-13T02:47:26.893Z,1.60
2022-09-13T02:50:11.121Z,1.77
2022-09-13T02:53:19.938Z,1.40
2022-09-13T02:55:59.900Z,1.35
2022-09-13T02:58:45.751Z,1.13
2022-09-13T03:03:38.982Z,1.25
2022-09-13T03:06:05.902Z,1.30
2022-09-13T03:08:32.530Z,1.45
2022-09-13T03:11:05.350Z,1.38
2022-09-13T03:13:45.868Z,1.20
2022-09-13T03:16:35.572Z,1.42
2022-09-13T03:19:17.065Z,1.50
2022-09-13T03:21:46.569Z,1.48
2022-09-13T03:24:31.959Z,1.60
2022-09-13T03:27:30.134Z,1.67
2022-09-13T03:30:09.159Z,1.45
2022-09-13T03:32:49.929Z,1.50
2022-09-13T03:35:31.618Z,1.70
2022-09-13T03:38:35.399Z,1.10
2022-09-13T03:41:07.474Z,1.52
2022-09-13T03:43:53.975Z,1.55
2022-09-13T03:46:35.372Z,1.40
2022-09-13T03:49:09.588Z,1.55
2022-09-13T03:51:36.271Z,1.83
2022-09-13T03:54:05.083Z,1.45
2022-09-13T03:56:31.806Z,1.45
2022-09-13T03:58:58.464Z,1.35
2022-09-13T04:01:25.107Z,2.10
2022-09-13T04:03:56.410Z,1.48
2022-09-13T04:06:23.596Z,1.60
2022-09-13T04:08:50.473Z,1.63
2022-09-13T04:11:17.105Z,1.20
2022-09-13T04:13:43.727Z,1.30
2022-09-13T04:16:10.748Z,1.67
2022-09-13T04:18:37.371Z,1.55
2022-09-13T04:21:03.997Z,1.52
2022-09-13T04:23:30.555Z,1.80
2022-09-13T04:26:02.049Z,1.73
2022-09-13T04:28:28.742Z,1.40
2022-09-13T04:30:55.388Z,1.50
2022-09-13T04:33:21.951Z,1.63
2022-09-13T04:35:48.873Z,1.60
2022-09-13T04:38:15.473Z,1.23
2022-09-13T04:40:42.077Z,1.23
2022-09-13T04:43:08.711Z,1.40
2022-09-13T04:45:37.089Z,1.60
2022-09-13T04:48:03.878Z,1.52
2022-09-13T04:50:30.582Z,1.60
2022-09-13T04:52:57.261Z,1.70
2022-09-13T04:55:23.836Z,1.67
2022-09-13T04:57:53.947Z,1.42
2022-09-13T05:00:20.625Z,1.83
2022-09-13T05:02:47.230Z,1.67
2022-09-13T05:05:13.892Z,1.52
2022-09-13T05:07:40.448Z,1.80
2022-09-13T05:10:07.568Z,1.40
2022-09-13T05:12:34.215Z,1.50
2022-09-13T05:15:00.832Z,1.70
2022-09-13T05:17:27.484Z,1.75
2022-09-13T05:19:54.135Z,2.05
2022-09-13T05:22:20.763Z,1.83
2022-09-13T05:24:47.400Z,1.80
2022-09-13T05:27:14.124Z,1.58
2022-09-13T05:29:41.032Z,1.60
2022-09-13T05:32:08.866Z,1.30
2022-09-13T05:34:35.593Z,1.40
2022-09-13T05:37:02.259Z,2.50
2022-09-13T05:39:43.687Z,1.77
2022-09-13T05:42:15.347Z,1.88
2022-09-13T05:44:41.997Z,1.55
2022-09-13T05:47:08.681Z,1.80
2022-09-13T05:49:39.023Z,1.92
2022-09-13T05:52:16.697Z,1.73
2022-09-13T05:54:43.362Z,1.42
2022-09-13T05:57:09.950Z,1.75
2022-09-13T05:59:36.595Z,1.70
2022-09-13T06:02:03.279Z,1.73
2022-09-13T06:04:30.015Z,1.80
2022-09-13T06:06:56.565Z,1.70
2022-09-13T06:09:23.339Z,1.73
2022-09-13T06:11:49.993Z,1.70
2022-09-13T06:14:16.644Z,1.45
2022-09-13T06:16:43.359Z,1.70
2022-09-13T06:19:10.186Z,1.42
2022-09-13T06:21:36.793Z,1.27
2022-09-13T06:24:03.553Z,1.77
2022-09-13T06:26:30.141Z,1.88
2022-09-13T06:28:57.370Z,1.83
2022-09-13T06:31:25.218Z,2.17
2022-09-13T06:33:56.518Z,2.22
2022-09-13T06:36:23.145Z,1.92
2022-09-13T06:38:49.929Z,2.10
2022-09-13T06:41:20.710Z,2.20
2022-09-13T06:43:47.512Z,2.13
2022-09-13T06:46:15.896Z,1.92
2022-09-13T06:48:43.741Z,2.00
2022-09-13T06:51:14.865Z,2.20
2022-09-13T06:53:41.737Z,2.05
2022-09-13T06:56:11.953Z,1.70
2022-09-13T06:58:38.758Z,1.80
2022-09-13T07:01:29.345Z,2.05
2022-09-13T07:04:06.101Z,2.10
2022-09-13T07:06:35.151Z,2.30
2022-09-13T07:09:02.851Z,2.33
2022-09-13T07:11:32.622Z,2.15
2022-09-13T07:13:59.316Z,2.53
2022-09-13T07:16:30.353Z,2.58
2022-09-13T07:19:01.399Z,3.20
2022-09-13T07:21:28.178Z,3.05
2022-09-13T07:23:55.540Z,4.22
2022-09-13T07:26:22.182Z,3.38
2022-09-13T07:28:50.143Z,3.60
2022-09-13T07:31:16.767Z,4.00
2022-09-13T07:33:43.644Z,3.60
2022-09-13T07:36:10.457Z,3.65
2022-09-13T07:38:37.453Z,3.97
2022-09-13T07:41:04.528Z,3.38
2022-09-13T07:43:31.467Z,3.45
2022-09-13T07:46:02.759Z,3.63
2022-09-13T07:48:33.390Z,3.70
2022-09-13T07:51:10.181Z,3.08
2022-09-13T07:53:37.052Z,3.63
2022-09-13T07:56:08.402Z,3.30
2022-09-13T07:58:35.829Z,3.40
2022-09-13T08:01:06.657Z,4.18
2022-09-13T08:03:34.275Z,3.58
2022-09-13T08:06:01.000Z,3.38
2022-09-13T08:08:30.512Z,3.45
2022-09-13T08:10:57.116Z,3.17
2022-09-13T08:13:23.904Z,3.10
2022-09-13T08:15:50.600Z,3.08
2022-09-13T08:18:17.953Z,2.88
2022-09-13T08:20:44.558Z,3.30
2022-09-13T08:23:11.768Z,2.45
2022-09-13T08:25:38.647Z,2.88
2022-09-13T08:28:09.271Z,3.15
2022-09-13T08:30:36.460Z,2.80
2022-09-13T08:33:04.776Z,2.78
2022-09-13T08:35:31.732Z,2.80
2022-09-13T08:37:58.466Z,2.60
2022-09-13T08:40:26.209Z,2.50
2022-09-13T08:43:17.997Z,2.78
2022-09-13T08:45:53.250Z,2.58
2022-09-13T08:50:47.997Z,2.97
2022-09-13T08:53:28.971Z,2.63
2022-09-13T08:56:17.145Z,2.95
2022-09-13T08:58:58.854Z,2.60
2022-09-13T09:01:50.290Z,2.95
2022-09-13T09:04:55.100Z,3.05
2022-09-13T09:07:25.995Z,2.92
2022-09-13T09:09:55.030Z,2.92
2022-09-13T09:12:37.653Z,3.05
2022-09-13T09:15:18.448Z,3.13
2022-09-13T09:18:04.746Z,2.78
2022-09-13T09:20:52.400Z,2.60
2022-09-13T09:23:21.758Z,2.35
2022-09-13T09:25:50.887Z,2.33
2022-09-13T09:28:21.864Z,1.95
2022-09-13T09:30:58.928Z,2.28
2022-09-13T09:33:31.120Z,2.05
2022-09-13T09:36:05.600Z,2.20
2022-09-13T09:38:32.789Z,2.38
2022-09-13T09:41:00.833Z,1.90
2022-09-13T09:43:35.624Z,1.70
2022-09-13T09:46:03.131Z,1.85
2022-09-13T09:48:35.503Z,1.90
2022-09-13T09:51:02.244Z,1.75
2022-09-13T09:53:36.639Z,1.75
2022-09-13T09:56:11.290Z,1.70
2022-09-13T09:58:39.958Z,2.00
2022-09-13T10:01:25.808Z,1.85
2022-09-13T10:04:10.527Z,1.58
2022-09-13T10:06:41.152Z,1.80
2022-09-13T10:09:18.675Z,1.70
2022-09-13T10:11:48.429Z,1.60
2022-09-13T10:14:43.721Z,1.60
2022-09-13T10:17:26.645Z,1.52
2022-09-13T10:20:02.541Z,1.58
2022-09-13T10:22:30.957Z,1.60
2022-09-13T10:25:23.189Z,1.70
2022-09-13T10:27:59.074Z,1.30
2022-09-13T10:30:25.601Z,1.27
2022-09-13T10:32:55.903Z,1.60
2022-09-13T10:35:29.391Z,1.27
2022-09-13T10:37:55.940Z,1.40
2022-09-13T10:40:29.808Z,1.40
2022-09-13T10:42:57.657Z,1.52
2022-09-13T10:45:26.149Z,1.50
2022-09-13T10:47:58.617Z,1.15
2022-09-13T10:50:29.297Z,1.20
2022-09-13T10:52:56.714Z,1.30
2022-09-13T10:55:26.783Z,1.40
2022-09-13T10:58:02.382Z,1.23
2022-09-13T11:00:36.484Z,1.40
2022-09-13T11:03:05.880Z,1.20
2022-09-13T11:05:36.209Z,1.30
2022-09-13T11:08:17.874Z,1.40
2022-09-13T11:11:06.128Z,1.25
2022-09-13T11:13:54.303Z,1.30
2022-09-13T11:16:23.826Z,1.25
2022-09-13T11:19:05.786Z,1.40
2022-09-13T11:21:32.356Z,1.30
2022-09-13T11:24:17.832Z,1.40
2022-09-13T11:26:59.372Z,1.27
2022-09-13T11:29:46.836Z,1.30
2022-09-13T11:32:50.928Z,1.40
2022-09-13T11:35:51.191Z,1.20
2022-09-13T11:38:37.072Z,1.40
2022-09-13T11:41:10.502Z,1.13
2022-09-13T11:43:49.311Z,1.20
2022-09-13T11:47:00.769Z,1.42
2022-09-13T11:49:32.939Z,1.40
2022-09-13T11:52:11.565Z,1.77
2022-09-13T11:54:58.293Z,1.58
2022-09-13T11:57:31.564Z,1.30
2022-09-13T12:00:00.700Z,1.38
2022-09-13T12:02:42.561Z,1.30
2022-09-13T12:05:22.525Z,1.30
2022-09-13T12:08:14.811Z,1.17
2022-09-13T12:10:53.051Z,1.30
2022-09-13T12:13:27.837Z,1.40
2022-09-13T12:15:57.563Z,1.40
2022-09-13T12:18:25.290Z,1.55
2022-09-13T12:20:57.832Z,1.40
2022-09-13T12:23:29.979Z,1.27
2022-09-13T12:26:02.565Z,1.52
2022-09-13T12:28:35.069Z,1.50
2022-09-13T12:31:22.486Z,1.38
2022-09-13T12:33:49.360Z,1.38
2022-09-13T12:36:34.671Z,1.40
2022-09-13T12:39:34.739Z,1.17
2022-09-13T12:42:13.348Z,1.40
2022-09-13T12:45:07.043Z,1.30
2022-09-13T12:48:07.074Z,1.10
2022-09-13T12:50:43.567Z,1.20
2022-09-13T12:53:29.585Z,1.10
2022-09-13T12:56:24.819Z,1.40
2022-09-13T12:59:13.732Z,1.25
2022-09-13T13:01:44.367Z,1.45
2022-09-13T13:04:15.192Z,1.42
2022-09-13T13:06:49.490Z,1.45
2022-09-13T13:09:26.619Z,1.63
2022-09-13T13:11:55.599Z,1.33
2022-09-13T13:14:29.328Z,1.27
2022-09-13T13:17:34.603Z,1.45
2022-09-13T13:20:01.495Z,1.40
2022-09-13T13:22:43.540Z,1.45
2022-09-13T13:25:32.899Z,1.20
2022-09-13T13:27:59.615Z,1.30
2022-09-13T13:30:38.578Z,1.75
2022-09-13T13:33:42.224Z,1.38
2022-09-13T13:36:22.248Z,1.70
2022-09-13T13:38:50.194Z,2.08
2022-09-13T13:41:34.652Z,1.90
2022-09-13T13:44:01.929Z,2.10
2022-09-13T13:46:32.519Z,1.90
2022-09-13T13:49:30.018Z,1.50
2022-09-13T13:52:25.434Z,1.60
2022-09-13T13:54:52.148Z,1.40
2022-09-13T13:57:34.773Z,1.80
2022-09-13T14:00:13.824Z,1.45
2022-09-13T14:02:46.146Z,1.60
2022-09-13T14:05:33.909Z,1.67
2022-09-13T14:08:22.279Z,2.10
2022-09-13T14:11:16.160Z,1.70
2022-09-13T14:14:16.738Z,1.88
2022-09-13T14:16:58.629Z,1.77
2022-09-13T14:19:29.290Z,1.77
2022-09-13T14:22:21.411Z,1.67
2022-09-13T14:24:52.132Z,1.83
2022-09-13T14:27:23.449Z,1.73
2022-09-13T14:30:00.137Z,1.83
2022-09-13T14:32:36.263Z,1.83
2022-09-13T14:35:06.804Z,1.70
2022-09-13T14:37:37.089Z,1.73
2022-09-13T14:40:15.949Z,1.70
2022-09-13T14:42:44.058Z,1.33
2022-09-13T14:45:14.664Z,1.70
2022-09-13T14:47:51.387Z,1.65
2022-09-13T14:50:19.776Z,1.30
2022-09-13T14:52:49.432Z,1.25
2022-09-13T14:55:18.744Z,1.30
2022-09-13T14:57:49.428Z,1.38
2022-09-13T15:00:21.088Z,1.20
2022-09-13T15:02:52.776Z,1.40
2022-09-13T15:05:20.762Z,1.30
2022-09-13T15:07:47.382Z,1.20
2022-09-13T15:10:27.288Z,1.30
2022-09-13T15:13:05.985Z,1.17
2022-09-13T15:15:42.657Z,1.33
2022-09-13T15:18:15.540Z,1.20
2022-09-13T15:20:56.201Z,1.00
2022-09-13T15:23:32.736Z,1.20
2022-09-13T15:26:06.126Z,1.23
2022-09-13T15:28:53.730Z,1.20
2022-09-13T15:31:25.445Z,0.95
2022-09-13T15:34:11.929Z,1.10
2022-09-13T15:36:38.582Z,1.23
2022-09-13T15:39:08.120Z,1.20
2022-09-13T15:41:35.410Z,1.50
2022-09-13T15:44:03.546Z,1.20
2022-09-13T15:46:30.475Z,1.25
2022-09-13T15:49:01.871Z,1.40
2022-09-13T15:51:28.477Z,1.30
2022-09-13T15:53:55.418Z,1.02
2022-09-13T15:56:32.279Z,1.35
2022-09-13T15:58:59.005Z,1.55
2022-09-13T16:01:26.465Z,1.20
2022-09-13T16:03:54.407Z,1.30
2022-09-13T16:06:24.607Z,1.30
2022-09-13T16:08:51.461Z,1.48
2022-09-13T16:11:18.097Z,1.30
2022-09-13T16:13:45.236Z,1.02
2022-09-13T16:16:13.752Z,1.60
2022-09-13T16:18:40.622Z,0.90
2022-09-13T16:21:07.286Z,1.23
2022-09-13T16:23:33.936Z,1.17
2022-09-13T16:26:00.602Z,1.10
2022-09-13T16:28:27.435Z,1.13
2022-09-13T16:30:54.079Z,1.42
2022-09-13T16:33:20.710Z,1.55
2022-09-13T16:35:47.710Z,1.33
2022-09-13T16:38:14.643Z,1.60
2022-09-13T16:40:42.555Z,1.50
2022-09-13T16:43:09.618Z,1.30
2022-09-13T16:45:38.894Z,1.45
2022-09-13T16:48:05.541Z,1.50
2022-09-13T16:50:35.026Z,1.63
2022-09-13T16:53:02.080Z,1.38
2022-09-13T16:55:28.692Z,1.30
2022-09-13T16:57:55.465Z,1.70
2022-09-13T17:00:22.188Z,1.30
2022-09-13T17:02:48.921Z,1.27
2022-09-13T17:05:15.969Z,1.50
2022-09-13T17:07:42.647Z,1.30
2022-09-13T17:10:09.556Z,1.48
2022-09-13T17:12:36.247Z,1.42
2022-09-13T17:15:03.321Z,1.30
2022-09-13T17:17:29.881Z,1.30
2022-09-13T17:19:56.551Z,1.40
2022-09-13T17:22:23.410Z,1.30
2022-09-13T17:24:50.286Z,1.30
2022-09-13T17:27:17.230Z,1.48
2022-09-13T17:29:43.808Z,1.60
2022-09-13T17:32:10.514Z,1.40
2022-09-13T17:34:37.148Z,1.70
2022-09-13T17:37:03.854Z,1.40
2022-09-13T17:39:30.990Z,1.60
2022-09-13T17:41:57.618Z,1.45
2022-09-13T17:44:24.282Z,1.50
2022-09-13T17:46:51.027Z,1.40
2022-09-13T17:49:17.756Z,1.58
2022-09-13T17:51:44.332Z,1.70
2022-09-13T17:54:10.978Z,1.65
2022-09-13T17:56:39.921Z,1.70
2022-09-13T17:59:10.062Z,1.55
2022-09-13T18:01:38.012Z,1.70
2022-09-13T18:04:04.728Z,1.70
2022-09-13T18:06:31.338Z,1.52
2022-09-13T18:08:57.960Z,1.35
2022-09-13T18:11:24.551Z,1.30
2022-09-13T18:13:51.304Z,1.30
2022-09-13T18:16:21.456Z,1.48
2022-09-13T18:18:49.339Z,1.75
2022-09-13T18:21:16.155Z,1.60
2022-09-13T18:23:43.025Z,1.63
2022-09-13T18:26:14.720Z,1.55
2022-09-13T18:28:41.418Z,1.48
2022-09-13T18:31:08.121Z,1.65
2022-09-13T18:33:34.925Z,1.70
2022-09-13T18:36:06.521Z,1.60
2022-09-13T18:38:34.949Z,1.40
2022-09-13T18:41:04.061Z,1.67
2022-09-13T18:43:31.337Z,1.73
2022-09-13T18:45:59.202Z,1.30
2022-09-13T18:48:29.325Z,1.45
2022-09-13T18:50:56.406Z,1.83
2022-09-13T18:53:31.833Z,1.70
2022-09-13T18:56:02.367Z,1.40
2022-09-13T18:58:33.217Z,1.40
2022-09-13T19:01:10.205Z,1.50
2022-09-13T19:03:37.373Z,1.80
2022-09-13T19:06:11.034Z,1.30
2022-09-13T19:08:38.109Z,1.50
2022-09-13T19:11:05.119Z,1.50
2022-09-13T19:13:32.423Z,1.60
2022-09-13T19:16:04.539Z,1.70
2022-09-13T19:18:31.228Z,1.45
2022-09-13T19:21:08.890Z,1.60
2022-09-13T19:23:57.958Z,1.30
2022-09-13T19:26:27.578Z,1.70
2022-09-13T19:28:56.050Z,1.70
2022-09-13T19:31:23.784Z,1.27
2022-09-13T19:33:50.508Z,1.30
2022-09-13T19:36:18.887Z,1.58
2022-09-13T19:38:45.705Z,1.63
2022-09-13T19:41:13.674Z,1.50
2022-09-13T19:43:41.089Z,1.45
2022-09-13T19:46:09.488Z,1.60
2022-09-13T19:48:44.515Z,1.90
2022-09-13T19:51:12.858Z,1.70
2022-09-13T19:53:55.872Z,1.90
2022-09-13T19:56:30.854Z,1.65
2022-09-13T19:58:57.796Z,1.60
2022-09-13T20:01:37.162Z,1.60
2022-09-13T20:04:05.785Z,1.50
2022-09-13T20:06:51.397Z,1.60
2022-09-13T20:09:19.044Z,1.40
2022-09-13T20:11:46.151Z,1.90
2022-09-13T20:14:13.404Z,1.60
2022-09-13T20:16:40.215Z,1.65
2022-09-13T20:19:23.699Z,1.77
2022-09-13T20:21:53.866Z,1.50
2022-09-13T20:24:20.483Z,1.70
2022-09-13T20:26:47.114Z,1.50
2022-09-13T20:29:13.744Z,1.77
2022-09-13T20:31:40.410Z,2.00
2022-09-13T20:34:07.978Z,1.50
2022-09-13T20:36:35.852Z,1.58
2022-09-13T20:39:03.716Z,1.58
2022-09-13T20:41:30.427Z,2.20
2022-09-13T20:43:57.300Z,1.70
2022-09-13T20:46:24.137Z,1.67
2022-09-13T20:48:50.806Z,1.52
2022-09-13T20:51:20.793Z,1.63
2022-09-13T20:53:47.533Z,1.58
2022-09-13T20:56:15.875Z,1.80
2022-09-13T20:58:43.090Z,2.17
2022-09-13T21:01:14.592Z,1.98
2022-09-13T21:03:42.739Z,1.70
2022-09-13T21:06:10.017Z,1.60
2022-09-13T21:08:36.842Z,1.60
2022-09-13T21:11:03.854Z,1.42
2022-09-13T21:13:32.618Z,1.50
2022-09-13T21:16:12.820Z,1.38
2022-09-13T21:18:39.556Z,1.45
2022-09-13T21:21:06.371Z,1.00
2022-09-13T21:23:34.772Z,1.15
2022-09-13T21:26:07.369Z,1.50
2022-09-13T21:28:34.541Z,1.40
2022-09-13T21:31:02.860Z,1.33
2022-09-13T21:33:29.592Z,1.55
2022-09-13T21:35:57.584Z,1.80
2022-09-13T21:38:25.339Z,1.55
2022-09-13T21:40:56.590Z,1.67
2022-09-13T21:43:23.268Z,1.60
2022-09-13T21:45:50.007Z,1.67
2022-09-13T21:48:16.751Z,1.80
2022-09-13T21:50:43.387Z,1.67
2022-09-13T21:53:10.010Z,1.65
2022-09-13T21:55:36.629Z,1.67
2022-09-13T21:58:03.237Z,1.60
2022-09-13T22:00:30.006Z,1.40
2022-09-13T22:02:56.612Z,1.33
2022-09-13T22:05:23.245Z,1.48
2022-09-13T22:07:49.864Z,1.30
2022-09-13T22:10:16.645Z,1.63
2022-09-13T22:12:43.234Z,1.23
2022-09-13T22:15:10.009Z,1.60
2022-09-13T22:17:36.735Z,1.50
2022-09-13T22:20:03.491Z,1.52
2022-09-13T22:22:30.007Z,1.48
2022-09-13T22:24:56.909Z,1.52
2022-09-13T22:27:23.456Z,1.70
2022-09-13T22:29:50.048Z,1.38
2022-09-13T22:32:18.505Z,1.70
2022-09-13T22:34:46.947Z,1.25
2022-09-13T22:37:13.622Z,1.88
2022-09-13T22:39:40.256Z,1.50
2022-09-13T22:42:06.945Z,1.90
2022-09-13T22:44:33.618Z,2.00
2022-09-13T22:47:00.231Z,1.65
2022-09-13T22:49:26.913Z,1.52
2022-09-13T22:51:53.819Z,1.67
2022-09-13T22:54:20.380Z,1.23
2022-09-13T22:56:47.254Z,1.50
2022-09-13T22:59:16.361Z,1.55
2022-09-13T23:01:43.084Z,1.70
2022-09-13T23:04:10.067Z,1.50
2022-09-13T23:06:36.816Z,1.65
2022-09-13T23:09:04.849Z,1.70
2022-09-13T23:11:35.935Z,1.58
2022-09-13T23:14:07.225Z,2.10
2022-09-13T23:16:44.653Z,1.60
2022-09-13T23:19:11.850Z,1.60
2022-09-13T23:21:38.684Z,1.80
2022-09-13T23:24:06.263Z,1.63
2022-09-13T23:26:33.126Z,1.73
2022-09-13T23:29:00.757Z,1.60
2022-09-13T23:31:35.280Z,1.52
2022-09-13T23:34:03.613Z,1.30
2022-09-13T23:36:32.251Z,1.90
2022-09-13T23:38:59.078Z,1.42
2022-09-13T23:41:25.822Z,1.35
2022-09-13T23:43:52.982Z,1.42
2022-09-13T23:46:19.650Z,1.30
2022-09-13T23:48:46.409Z,1.67
2022-09-13T23:51:14.970Z,1.85
2022-09-13T23:53:41.561Z,1.48
2022-09-13T23:56:08.290Z,1.55
2022-09-13T23:58:35.695Z,1.60
